createdAt,value
2018-05-02T00:00:04.484Z,7.03
2018-05-02T00:02:32.829Z,5.50
2018-05-02T00:05:00.428Z,6.40
2018-05-02T00:07:27.948Z,6.60
2018-05-02T00:09:55.511Z,6.73
2018-05-02T00:12:23.049Z,6.87
2018-05-02T00:14:51.401Z,5.80
2018-05-02T00:17:19.760Z,6.10
2018-05-02T00:19:47.392Z,6.90
2018-05-02T00:22:14.934Z,7.33
2018-05-02T00:24:42.501Z,6.77
2018-05-02T00:27:10.057Z,8.60
2018-05-02T00:29:37.607Z,7.60
2018-05-02T00:32:05.134Z,8.20
2018-05-02T00:34:33.483Z,7.10
2018-05-02T00:37:01.030Z,7.00
2018-05-02T00:39:28.579Z,7.20
2018-05-02T00:41:56.134Z,8.10
2018-05-02T00:44:23.732Z,8.70
2018-05-02T00:46:51.274Z,6.97
2018-05-02T00:49:18.830Z,6.70
2018-05-02T00:51:46.428Z,7.80
2018-05-02T00:54:14.730Z,7.30
2018-05-02T00:56:42.279Z,5.77
2018-05-02T00:59:10.626Z,5.63
2018-05-02T01:01:38.154Z,7.60
2018-05-02T01:04:05.686Z,6.20
2018-05-02T01:06:33.263Z,6.50
2018-05-02T01:09:00.850Z,6.40
2018-05-02T01:11:28.391Z,6.40
2018-05-02T01:13:55.945Z,6.33
2018-05-02T01:16:23.463Z,6.13
2018-05-02T01:18:51.814Z,7.77
2018-05-02T01:21:19.374Z,6.93
2018-05-02T01:23:46.938Z,6.80
2018-05-02T01:26:15.299Z,6.63
2018-05-02T01:28:42.826Z,7.00
2018-05-02T01:31:10.360Z,6.90
2018-05-02T01:33:38.716Z,8.77
2018-05-02T01:36:06.275Z,7.63
2018-05-02T01:38:33.877Z,8.93
2018-05-02T01:41:01.435Z,7.00
2018-05-02T01:43:29.018Z,8.67
2018-05-02T01:45:56.559Z,7.90
2018-05-02T01:48:24.111Z,8.20
2018-05-02T01:50:51.695Z,8.13
2018-05-02T01:53:19.223Z,7.93
2018-05-02T01:55:46.811Z,8.33
2018-05-02T01:58:14.419Z,7.70
2018-05-02T02:00:42.722Z,7.60
2018-05-02T02:03:10.469Z,8.27
2018-05-02T02:05:38.784Z,7.30
2018-05-02T02:08:06.302Z,9.47
2018-05-02T02:10:34.647Z,7.23
2018-05-02T02:13:02.219Z,8.03
2018-05-02T02:15:29.741Z,7.60
2018-05-02T02:17:57.408Z,8.13
2018-05-02T02:20:24.959Z,8.90
2018-05-02T02:22:52.523Z,9.00
2018-05-02T02:25:20.111Z,8.83
2018-05-02T02:27:47.741Z,7.37
2018-05-02T02:30:15.261Z,7.03
2018-05-02T02:32:43.614Z,7.53
2018-05-02T02:35:11.188Z,6.63
2018-05-02T02:37:39.535Z,6.70
2018-05-02T02:40:07.124Z,7.73
2018-05-02T02:42:35.470Z,7.30
2018-05-02T02:45:03.110Z,8.20
2018-05-02T02:47:30.629Z,6.40
2018-05-02T02:49:58.990Z,8.50
2018-05-02T02:52:26.593Z,9.00
2018-05-02T02:54:54.151Z,10.30
2018-05-02T02:57:21.767Z,10.53
2018-05-02T02:59:50.090Z,9.20
2018-05-02T03:02:17.638Z,9.67
2018-05-02T03:04:45.247Z,8.40
2018-05-02T03:07:12.917Z,7.27
2018-05-02T03:09:41.979Z,9.70
2018-05-02T03:12:09.516Z,9.03
2018-05-02T03:14:37.091Z,7.73
2018-05-02T03:17:04.636Z,8.43
2018-05-02T03:19:32.217Z,8.90
2018-05-02T03:21:59.742Z,8.90
2018-05-02T03:24:28.083Z,7.97
2018-05-02T03:26:55.667Z,8.93
2018-05-02T03:29:23.985Z,7.20
2018-05-02T03:31:51.549Z,8.10
2018-05-02T03:34:19.070Z,8.50
2018-05-02T03:36:47.426Z,7.60
2018-05-02T03:39:15.005Z,8.77
2018-05-02T03:41:43.360Z,9.57
2018-05-02T03:44:11.004Z,9.33
2018-05-02T03:46:38.535Z,7.13
2018-05-02T03:49:06.117Z,8.10
2018-05-02T03:51:33.658Z,8.43
2018-05-02T03:54:01.227Z,7.40
2018-05-02T03:56:28.743Z,8.40
2018-05-02T03:58:57.082Z,8.57
2018-05-02T04:04:41.054Z,9.77
2018-05-02T04:07:14.576Z,8.20
2018-05-02T04:09:42.903Z,9.00
2018-05-02T04:12:10.472Z,9.40
2018-05-02T04:14:38.019Z,8.80
2018-05-02T04:17:05.673Z,9.27
2018-05-02T04:19:33.194Z,8.40
2018-05-02T04:22:01.545Z,9.30
2018-05-02T04:24:29.115Z,8.50
2018-05-02T04:26:57.445Z,10.80
2018-05-02T04:29:25.038Z,9.20
2018-05-02T04:31:52.579Z,8.70
2018-05-02T04:34:20.332Z,8.70
2018-05-02T04:36:48.617Z,9.00
2018-05-02T04:39:16.150Z,8.40
2018-05-02T04:41:43.685Z,8.27
2018-05-02T04:44:11.983Z,7.83
2018-05-02T04:46:39.550Z,8.40
2018-05-02T04:49:07.080Z,8.00
2018-05-02T04:51:35.423Z,9.33
2018-05-02T04:54:02.945Z,8.97
2018-05-02T04:56:30.519Z,9.33
2018-05-02T04:58:58.067Z,9.90
2018-05-02T05:01:25.634Z,8.13
2018-05-02T05:03:53.222Z,9.10
2018-05-02T05:06:20.775Z,8.00
2018-05-02T05:08:48.390Z,10.00
2018-05-02T05:11:15.932Z,10.43
2018-05-02T05:13:44.218Z,11.40
2018-05-02T05:16:12.548Z,11.40
2018-05-02T05:18:40.120Z,10.83
2018-05-02T05:21:07.744Z,10.90
2018-05-02T05:23:35.297Z,10.90
2018-05-02T05:26:02.853Z,10.67
2018-05-02T05:28:30.406Z,9.00
2018-05-02T05:30:57.981Z,9.07
2018-05-02T05:33:25.663Z,8.03
2018-05-02T05:35:53.199Z,8.50
2018-05-02T05:38:20.756Z,8.27
2018-05-02T05:40:48.343Z,8.60
2018-05-02T05:43:15.903Z,7.97
2018-05-02T05:45:43.501Z,7.70
2018-05-02T05:48:11.839Z,7.77
2018-05-02T05:50:39.357Z,6.23
2018-05-02T05:53:06.919Z,8.60
2018-05-02T05:55:34.505Z,7.83
2018-05-02T05:58:02.102Z,6.53
2018-05-02T06:00:29.627Z,7.47
2018-05-02T06:02:57.156Z,7.30
2018-05-02T06:05:24.738Z,7.97
2018-05-02T06:07:52.273Z,7.30
2018-05-02T06:10:19.794Z,7.40
2018-05-02T06:12:47.423Z,7.37
2018-05-02T06:15:14.978Z,7.13
2018-05-02T06:17:42.546Z,7.03
2018-05-02T06:20:10.159Z,7.83
2018-05-02T06:22:38.564Z,8.50
2018-05-02T06:25:06.114Z,7.13
2018-05-02T06:27:33.704Z,6.63
2018-05-02T06:30:01.251Z,6.63
2018-05-02T06:32:28.832Z,6.90
2018-05-02T06:34:56.467Z,5.87
2018-05-02T06:37:24.017Z,7.00
2018-05-02T06:39:51.541Z,6.77
2018-05-02T06:42:19.839Z,6.27
2018-05-02T06:44:47.429Z,6.93
2018-05-02T06:47:14.974Z,6.77
2018-05-02T06:49:42.518Z,6.97
2018-05-02T06:52:10.087Z,7.07
2018-05-02T06:54:37.680Z,6.47
2018-05-02T06:57:05.191Z,5.83
2018-05-02T06:59:33.511Z,6.60
2018-05-02T07:02:01.080Z,5.83
2018-05-02T07:04:28.654Z,6.50
2018-05-02T07:06:56.232Z,6.57
2018-05-02T07:09:24.538Z,6.37
2018-05-02T07:11:52.081Z,6.77
2018-05-02T07:14:20.364Z,6.67
2018-05-02T07:16:47.934Z,6.20
2018-05-02T07:19:15.473Z,5.63
2018-05-02T07:21:43.811Z,5.57
2018-05-02T07:24:11.378Z,6.23
2018-05-02T07:26:39.007Z,6.17
2018-05-02T07:29:06.562Z,6.10
2018-05-02T07:31:34.156Z,5.80
2018-05-02T07:34:02.466Z,6.97
2018-05-02T07:36:30.804Z,6.30
2018-05-02T07:38:58.392Z,5.80
2018-05-02T07:41:26.715Z,6.80
2018-05-02T07:43:54.247Z,6.50
2018-05-02T07:46:21.851Z,6.80
2018-05-02T07:48:49.493Z,6.57
2018-05-02T07:51:17.044Z,6.43
2018-05-02T07:53:44.594Z,6.33
2018-05-02T07:56:12.167Z,6.70
2018-05-02T07:58:39.685Z,6.67
2018-05-02T08:01:07.236Z,6.87
2018-05-02T08:03:34.851Z,6.30
2018-05-02T08:06:02.391Z,7.07
2018-05-02T08:08:29.969Z,6.93
2018-05-02T08:10:57.529Z,6.87
2018-05-02T08:13:25.065Z,6.27
2018-05-02T08:15:52.626Z,6.20
2018-05-02T08:18:20.161Z,5.90
2018-05-02T08:20:47.709Z,6.80
2018-05-02T08:23:15.232Z,6.80
2018-05-02T08:25:42.749Z,6.17
2018-05-02T08:28:11.146Z,6.80
2018-05-02T08:30:38.691Z,6.43
2018-05-02T08:33:06.215Z,6.70
2018-05-02T08:35:33.763Z,6.73
2018-05-02T08:38:01.311Z,7.47
2018-05-02T08:40:28.879Z,5.73
2018-05-02T08:42:56.403Z,6.67
2018-05-02T08:45:23.998Z,5.70
2018-05-02T08:47:51.526Z,6.93
2018-05-02T08:50:19.100Z,5.93
2018-05-02T08:52:46.642Z,7.07
2018-05-02T08:55:14.234Z,5.83
2018-05-02T08:57:41.836Z,6.30
2018-05-02T09:00:10.176Z,5.80
2018-05-02T09:02:37.726Z,5.80
2018-05-02T09:05:05.303Z,7.10
2018-05-02T09:07:32.853Z,5.03
2018-05-02T09:10:00.377Z,5.73
2018-05-02T09:12:27.968Z,6.43
2018-05-02T09:14:55.505Z,6.03
2018-05-02T09:17:23.044Z,6.20
2018-05-02T09:19:50.658Z,5.33
2018-05-02T09:22:18.183Z,6.10
2018-05-02T09:24:45.749Z,5.60
2018-05-02T09:27:13.310Z,5.50
2018-05-02T09:29:40.866Z,5.27
2018-05-02T09:32:08.400Z,5.07
2018-05-02T09:34:35.921Z,5.30
2018-05-02T09:37:03.519Z,4.87
2018-05-02T09:39:31.103Z,4.60
2018-05-02T09:41:58.663Z,5.13
2018-05-02T09:44:26.198Z,4.63
2018-05-02T09:46:53.738Z,4.00
2018-05-02T09:49:22.061Z,3.90
2018-05-02T09:51:49.592Z,4.97
2018-05-02T09:54:17.131Z,4.33
2018-05-02T09:56:45.562Z,4.13
2018-05-02T09:59:13.156Z,4.70
2018-05-02T10:01:41.474Z,4.03
2018-05-02T10:04:09.027Z,4.60
2018-05-02T10:06:36.582Z,3.90
2018-05-02T10:09:04.101Z,4.00
2018-05-02T10:11:31.692Z,3.90
2018-05-02T10:13:59.255Z,4.10
2018-05-02T10:16:26.797Z,4.67
2018-05-02T10:18:55.147Z,4.80
2018-05-02T10:21:22.701Z,4.60
2018-05-02T10:23:50.329Z,4.43
2018-05-02T10:26:17.886Z,4.23
2018-05-02T10:28:45.503Z,3.63
2018-05-02T10:31:13.083Z,4.30
2018-05-02T10:33:41.514Z,3.80
2018-05-02T10:36:09.054Z,4.43
2018-05-02T10:38:36.599Z,4.27
2018-05-02T10:41:04.168Z,4.27
2018-05-02T10:43:31.733Z,4.13
2018-05-02T10:45:59.392Z,3.50
2018-05-02T10:48:26.953Z,4.77
2018-05-02T10:53:27.439Z,4.00
2018-05-02T10:55:55.035Z,3.80
2018-05-02T10:58:22.625Z,3.93
2018-05-02T11:00:50.184Z,4.73
2018-05-02T11:03:17.772Z,4.20
2018-05-02T11:05:45.336Z,3.97
2018-05-02T11:08:12.928Z,3.80
2018-05-02T11:10:40.503Z,3.67
2018-05-02T11:13:08.101Z,3.40
2018-05-02T11:15:35.838Z,3.50
2018-05-02T11:18:03.428Z,3.10
2018-05-02T11:20:31.794Z,2.67
2018-05-02T11:22:59.347Z,3.03
2018-05-02T11:25:27.028Z,2.60
2018-05-02T11:27:55.362Z,2.77
2018-05-02T11:30:22.987Z,2.30
2018-05-02T11:32:50.636Z,3.00
2018-05-02T11:35:18.288Z,2.80
2018-05-02T11:37:45.953Z,2.60
2018-05-02T11:40:13.548Z,2.53
2018-05-02T11:42:41.991Z,2.10
2018-05-02T11:45:09.648Z,2.60
2018-05-02T11:47:37.328Z,2.00
2018-05-02T11:50:04.979Z,2.97
2018-05-02T11:52:32.542Z,2.50
2018-05-02T11:55:00.190Z,2.67
2018-05-02T11:57:27.747Z,1.97
2018-05-02T11:59:55.415Z,1.97
2018-05-02T12:02:22.975Z,1.73
2018-05-02T12:04:50.636Z,1.77
2018-05-02T12:07:18.209Z,1.60
2018-05-02T12:09:45.795Z,1.73
2018-05-02T12:12:14.129Z,1.73
2018-05-02T12:14:41.689Z,1.70
2018-05-02T12:17:09.271Z,2.27
2018-05-02T12:19:36.927Z,1.60
2018-05-02T12:22:04.584Z,2.23
2018-05-02T12:24:32.144Z,2.37
2018-05-02T12:26:59.743Z,2.03
2018-05-02T12:29:27.307Z,2.10
2018-05-02T12:31:54.893Z,1.80
2018-05-02T12:34:22.454Z,1.73
2018-05-02T12:36:50.064Z,2.07
2018-05-02T12:39:18.516Z,2.50
2018-05-02T12:41:46.099Z,2.13
2018-05-02T12:44:14.478Z,2.40
2018-05-02T12:46:42.855Z,2.10
2018-05-02T12:49:11.239Z,1.70
2018-05-02T12:51:39.570Z,1.93
2018-05-02T12:54:07.163Z,2.40
2018-05-02T12:56:34.825Z,2.27
2018-05-02T12:59:02.380Z,1.97
2018-05-02T13:01:30.028Z,2.23
2018-05-02T13:03:57.698Z,2.17
2018-05-02T13:06:25.375Z,2.87
2018-05-02T13:08:52.940Z,2.23
2018-05-02T13:11:21.264Z,2.20
2018-05-02T13:13:48.856Z,2.70
2018-05-02T13:16:17.184Z,2.60
2018-05-02T13:18:44.775Z,2.67
2018-05-02T13:21:12.352Z,2.57
2018-05-02T13:23:39.923Z,2.33
2018-05-02T13:26:07.567Z,2.17
2018-05-02T13:28:35.180Z,2.23
2018-05-02T13:31:02.744Z,2.23
2018-05-02T13:33:30.309Z,2.30
2018-05-02T13:35:57.941Z,2.37
2018-05-02T13:38:26.285Z,2.40
2018-05-02T13:40:53.888Z,2.10
2018-05-02T13:43:21.452Z,2.60
2018-05-02T13:45:49.820Z,2.30
2018-05-02T13:48:18.197Z,1.60
2018-05-02T13:50:46.588Z,2.30
2018-05-02T13:53:14.140Z,1.70
2018-05-02T13:55:42.460Z,2.10
2018-05-02T13:58:10.056Z,1.93
2018-05-02T14:00:37.608Z,1.53
2018-05-02T14:03:05.186Z,2.10
2018-05-02T14:05:33.535Z,1.33
2018-05-02T14:08:01.127Z,1.53
2018-05-02T14:10:29.483Z,1.50
2018-05-02T14:12:58.546Z,1.30
2018-05-02T14:15:26.121Z,1.50
2018-05-02T14:17:53.670Z,1.30
2018-05-02T14:20:21.220Z,1.73
2018-05-02T14:22:48.820Z,1.43
2018-05-02T14:25:16.373Z,1.40
2018-05-02T14:27:43.982Z,1.57
2018-05-02T14:30:11.563Z,1.70
2018-05-02T14:32:39.138Z,1.30
2018-05-02T14:35:06.678Z,1.83
2018-05-02T14:37:34.206Z,1.73
2018-05-02T14:40:02.522Z,1.47
2018-05-02T14:42:30.040Z,2.00
2018-05-02T14:44:58.375Z,1.43
2018-05-02T14:47:26.003Z,1.20
2018-05-02T14:49:53.561Z,1.80
2018-05-02T14:52:21.116Z,1.50
2018-05-02T14:54:48.641Z,1.43
2018-05-02T14:57:16.983Z,1.83
2018-05-02T14:59:44.538Z,1.80
2018-05-02T15:02:12.162Z,1.80
2018-05-02T15:04:39.678Z,1.60
2018-05-02T15:07:07.229Z,1.50
2018-05-02T15:09:34.795Z,1.17
2018-05-02T15:12:03.120Z,1.80
2018-05-02T15:14:30.640Z,2.00
2018-05-02T15:16:58.201Z,1.93
2018-05-02T15:19:25.747Z,1.60
2018-05-02T15:21:53.295Z,2.07
2018-05-02T15:24:20.861Z,1.87
2018-05-02T15:26:48.406Z,1.77
2018-05-02T15:29:15.932Z,2.00
2018-05-02T15:31:43.514Z,2.03
2018-05-02T15:34:11.069Z,1.90
2018-05-02T15:36:38.627Z,1.37
2018-05-02T15:39:06.167Z,1.67
2018-05-02T15:41:33.687Z,2.10
2018-05-02T15:44:01.225Z,2.37
2018-05-02T15:46:28.748Z,2.30
2018-05-02T15:48:56.295Z,2.13
2018-05-02T15:51:23.863Z,1.97
2018-05-02T15:53:51.484Z,2.87
2018-05-02T15:56:19.812Z,2.40
2018-05-02T15:58:47.362Z,2.00
2018-05-02T16:01:14.966Z,2.77
2018-05-02T16:03:42.512Z,2.43
2018-05-02T16:06:10.071Z,2.23
2018-05-02T16:08:37.594Z,2.40
2018-05-02T16:11:05.158Z,2.43
2018-05-02T16:13:32.709Z,2.63
2018-05-02T16:16:00.252Z,2.60
2018-05-02T16:18:28.583Z,2.20
2018-05-02T16:20:56.246Z,2.10
2018-05-02T16:23:23.783Z,2.50
2018-05-02T16:25:51.349Z,2.30
2018-05-02T16:28:18.919Z,2.50
2018-05-02T16:30:46.499Z,2.00
2018-05-02T16:33:14.095Z,2.10
2018-05-02T16:35:41.622Z,1.87
2018-05-02T16:38:09.203Z,2.53
2018-05-02T16:40:37.551Z,1.70
2018-05-02T16:43:05.082Z,2.40
2018-05-02T16:45:32.750Z,2.17
2018-05-02T16:48:00.290Z,2.10
2018-05-02T16:50:27.881Z,1.87
2018-05-02T16:52:55.490Z,1.90
2018-05-02T16:55:23.833Z,1.30
2018-05-02T16:57:51.379Z,1.30
2018-05-02T17:00:19.074Z,1.80
2018-05-02T17:02:47.394Z,1.93
2018-05-02T17:05:14.966Z,1.50
2018-05-02T17:07:42.519Z,1.43
2018-05-02T17:10:10.038Z,1.43
2018-05-02T17:12:38.346Z,1.80
2018-05-02T17:15:05.934Z,1.70
2018-05-02T17:17:33.502Z,1.30
2018-05-02T17:20:01.060Z,1.40
2018-05-02T17:22:28.657Z,1.67
2018-05-02T17:24:56.969Z,1.50
2018-05-02T17:27:24.541Z,1.50
2018-05-02T17:29:52.065Z,1.80
2018-05-02T17:32:19.645Z,1.40
2018-05-02T17:34:47.219Z,1.63
2018-05-02T17:37:14.753Z,1.70
2018-05-02T17:39:42.303Z,1.50
2018-05-02T17:42:09.852Z,2.00
2018-05-02T17:44:38.176Z,1.60
2018-05-02T17:47:05.821Z,1.50
2018-05-02T17:49:33.408Z,1.80
2018-05-02T17:52:00.994Z,1.70
2018-05-02T17:54:29.347Z,1.60
2018-05-02T17:56:56.914Z,1.80
2018-05-02T17:59:24.432Z,2.10
2018-05-02T18:01:52.047Z,1.60
2018-05-02T18:04:19.742Z,1.70
2018-05-02T18:06:47.281Z,1.80
2018-05-02T18:09:15.592Z,1.90
2018-05-02T18:11:43.157Z,1.43
2018-05-02T18:14:10.751Z,1.77
2018-05-02T18:16:38.335Z,1.50
2018-05-02T18:19:06.625Z,1.70
2018-05-02T18:21:34.204Z,1.70
2018-05-02T18:24:01.756Z,1.60
2018-05-02T18:26:29.338Z,1.30
2018-05-02T18:28:56.939Z,1.90
2018-05-02T18:31:25.229Z,2.03
2018-05-02T18:33:53.511Z,1.87
2018-05-02T18:36:21.951Z,2.00
2018-05-02T18:38:49.546Z,1.67
2018-05-02T18:41:17.876Z,1.90
2018-05-02T18:43:45.397Z,1.63
2018-05-02T18:46:13.008Z,1.70
2018-05-02T18:48:40.532Z,2.20
2018-05-02T18:51:08.086Z,1.70
2018-05-02T18:53:35.762Z,2.07
2018-05-02T18:56:03.471Z,2.13
2018-05-02T18:58:31.126Z,2.60
2018-05-02T19:00:59.518Z,2.00
2018-05-02T19:03:27.827Z,2.33
2018-05-02T19:05:55.421Z,2.50
2018-05-02T19:08:22.990Z,1.80
2018-05-02T19:10:50.540Z,1.90
2018-05-02T19:13:18.095Z,2.10
2018-05-02T19:15:45.622Z,1.90
2018-05-02T19:21:18.280Z,2.40
2018-05-02T19:23:45.868Z,2.23
2018-05-02T19:26:19.046Z,2.80
2018-05-02T19:28:47.363Z,2.60
2018-05-02T19:31:20.536Z,4.30
2018-05-02T19:33:52.922Z,3.53
2018-05-02T19:36:20.481Z,2.23
2018-05-02T19:38:48.060Z,2.40
2018-05-02T19:41:21.278Z,2.13
2018-05-02T19:43:56.109Z,2.20
2018-05-02T19:46:23.759Z,2.27
2018-05-02T19:48:51.343Z,2.47
2018-05-02T19:51:25.305Z,2.00
2018-05-02T19:53:52.889Z,1.97
2018-05-02T19:56:20.547Z,1.90
2018-05-02T19:58:48.167Z,2.77
2018-05-02T20:01:21.333Z,2.00
2018-05-02T20:03:49.672Z,2.07
2018-05-02T20:06:17.243Z,2.33
2018-05-02T20:08:50.441Z,2.13
2018-05-02T20:14:26.008Z,2.40
2018-05-02T20:16:53.566Z,3.20
2018-05-02T20:19:21.143Z,2.40
2018-05-02T20:21:49.489Z,2.87
2018-05-02T20:24:17.056Z,3.50
2018-05-02T20:26:44.702Z,2.63
2018-05-02T20:29:12.274Z,2.83
2018-05-02T20:31:39.805Z,2.60
2018-05-02T20:34:07.365Z,3.17
2018-05-02T20:36:34.948Z,4.80
2018-05-02T20:39:02.494Z,5.00
2018-05-02T20:41:30.027Z,5.50
2018-05-02T20:43:57.649Z,5.50
2018-05-02T20:46:25.198Z,4.97
2018-05-02T20:48:52.721Z,4.20
2018-05-02T20:51:20.299Z,4.57
2018-05-02T20:53:47.873Z,4.77
2018-05-02T20:56:15.418Z,3.63
2018-05-02T20:58:42.950Z,3.50
2018-05-02T21:01:10.528Z,3.43
2018-05-02T21:03:38.130Z,3.70
2018-05-02T21:06:06.474Z,3.47
2018-05-02T21:08:34.060Z,3.20
2018-05-02T21:11:02.421Z,3.00
2018-05-02T21:13:30.097Z,3.53
2018-05-02T21:15:58.409Z,3.40
2018-05-02T21:18:25.957Z,3.83
2018-05-02T21:20:53.522Z,3.93
2018-05-02T21:23:21.118Z,4.63
2018-05-02T21:25:48.760Z,5.33
2018-05-02T21:28:16.301Z,5.30
2018-05-02T21:30:43.886Z,4.50
2018-05-02T21:33:11.471Z,5.10
2018-05-02T21:35:39.040Z,4.27
2018-05-02T21:38:06.617Z,4.50
2018-05-02T21:40:34.201Z,4.77
2018-05-02T21:43:02.523Z,4.60
2018-05-02T21:45:30.041Z,4.93
2018-05-02T21:47:57.585Z,5.00
2018-05-02T21:50:25.897Z,4.97
2018-05-02T21:52:53.441Z,4.60
2018-05-02T21:55:20.998Z,3.53
2018-05-02T21:57:48.567Z,3.33
2018-05-02T22:00:16.111Z,3.57
2018-05-02T22:02:43.706Z,3.60
2018-05-02T22:05:11.390Z,4.87
2018-05-02T22:07:40.478Z,4.80
2018-05-02T22:10:08.073Z,5.07
2018-05-02T22:12:35.623Z,4.83
2018-05-02T22:15:03.991Z,4.43
2018-05-02T22:17:31.532Z,5.30
2018-05-02T22:19:59.105Z,4.47
2018-05-02T22:22:26.734Z,4.53
2018-05-02T22:24:54.282Z,5.17
2018-05-02T22:27:21.813Z,4.77
2018-05-02T22:29:50.133Z,4.90
2018-05-02T22:32:17.722Z,4.20
2018-05-02T22:34:45.317Z,3.77
2018-05-02T22:37:12.852Z,4.10
2018-05-02T22:39:40.377Z,4.20
2018-05-02T22:42:07.910Z,4.23
2018-05-02T22:44:35.483Z,4.73
2018-05-02T22:47:03.002Z,4.00
2018-05-02T22:49:31.310Z,5.00
2018-05-02T22:51:58.829Z,4.23
2018-05-02T22:54:27.139Z,4.07
2018-05-02T22:56:54.730Z,4.50
2018-05-02T22:59:22.390Z,4.47
2018-05-02T23:01:49.938Z,4.70
2018-05-02T23:04:17.467Z,5.47
2018-05-02T23:06:45.045Z,5.20
2018-05-02T23:09:12.570Z,5.10
2018-05-02T23:11:40.887Z,4.93
2018-05-02T23:14:08.567Z,6.80
2018-05-02T23:16:36.143Z,6.37
2018-05-02T23:19:03.756Z,5.33
2018-05-02T23:21:32.129Z,5.43
2018-05-02T23:23:59.669Z,5.47
2018-05-02T23:26:27.983Z,5.67
2018-05-02T23:28:55.633Z,6.53
2018-05-02T23:31:23.223Z,6.87
2018-05-02T23:33:50.754Z,6.10
2018-05-02T23:36:18.318Z,6.60
2018-05-02T23:38:45.869Z,6.67
2018-05-02T23:41:13.444Z,6.20
2018-05-02T23:43:41.039Z,7.07
2018-05-02T23:46:09.381Z,6.77
2018-05-02T23:48:36.963Z,6.20
2018-05-02T23:51:04.530Z,5.60
2018-05-02T23:53:32.074Z,6.40
2018-05-02T23:55:59.609Z,7.87
2018-05-02T23:58:27.182Z,6.10
